Time;durP1;ratioP1;P1;durP2;ratioP2;P2;SDS_P1;SDS_P2;PMS_P1;PMS_P2;Temp;Humidity;BMP_temperature;BMP_pressure;BME280_temperature;BME280_humidity;BME280_pressure;Samples;Min_cycle;Max_cycle;Signal;HPM_P1;HPM_P2
2022/05/08 00:02:13;;;;;;;5.40;3.43;;;11.60;99.90;;;;;;5066577;28;20188;-47
2022/05/08 00:04:39;;;;;;;4.13;2.97;;;11.60;99.90;;;;;;5064427;28;20186;-54
2022/05/08 00:07:05;;;;;;;4.30;3.47;;;11.60;99.90;;;;;;5065844;28;20217;-53
2022/05/08 00:09:31;;;;;;;5.57;4.07;;;11.60;99.90;;;;;;5065482;28;20190;-48
2022/05/08 00:11:57;;;;;;;6.00;4.27;;;11.60;99.90;;;;;;5064201;28;20178;-51
2022/05/08 00:14:24;;;;;;;4.70;3.20;;;11.50;99.90;;;;;;5066217;28;20177;-50
2022/05/08 00:16:49;;;;;;;5.47;3.60;;;11.50;99.90;;;;;;5063846;28;20216;-49
2022/05/08 00:19:16;;;;;;;4.50;3.20;;;11.50;99.90;;;;;;5067309;28;20186;-53
2022/05/08 00:21:43;;;;;;;5.13;3.60;;;11.60;99.90;;;;;;5063983;28;20170;-52
2022/05/08 00:24:08;;;;;;;5.73;3.57;;;11.40;99.90;;;;;;5066644;28;20177;-53
2022/05/08 00:26:34;;;;;;;5.43;3.57;;;11.40;99.90;;;;;;5064722;28;20182;-54
2022/05/08 00:29:00;;;;;;;5.80;4.20;;;11.30;99.90;;;;;;5064686;28;20219;-56
2022/05/08 00:31:25;;;;;;;3.97;3.20;;;11.40;99.90;;;;;;5065330;28;20192;-54
2022/05/08 00:33:51;;;;;;;5.27;3.40;;;11.40;99.90;;;;;;5063895;28;20178;-51
2022/05/08 00:36:17;;;;;;;6.40;4.33;;;11.40;99.90;;;;;;5066578;28;20212;-55
2022/05/08 00:38:43;;;;;;;4.27;3.57;;;11.20;99.90;;;;;;5062871;28;20181;-56
2022/05/08 00:41:09;;;;;;;3.43;2.63;;;11.20;99.90;;;;;;5066690;28;20177;-55
2022/05/08 00:43:38;;;;;;;4.20;3.60;;;11.10;99.90;;;;;;5064167;28;20208;-52
2022/05/08 00:46:16;;;;;;;3.80;3.40;;;11.10;99.90;;;;;;5064685;28;20174;-49
2022/05/08 00:48:42;;;;;;;7.30;3.00;;;11.00;99.90;;;;;;5066089;28;20186;-55
2022/05/08 00:51:10;;;;;;;4.27;3.17;;;11.00;99.90;;;;;;5063500;28;20209;-49
2022/05/08 00:53:42;;;;;;;3.13;2.77;;;11.10;99.90;;;;;;5066384;28;20186;-52
2022/05/08 00:56:10;;;;;;;3.87;3.13;;;11.20;99.90;;;;;;5060409;28;20206;-53
2022/05/08 00:58:37;;;;;;;5.03;3.53;;;11.20;99.90;;;;;;5065929;28;20217;-54
2022/05/08 01:01:04;;;;;;;6.60;3.63;;;11.30;99.90;;;;;;5064496;28;20243;-56
2022/05/08 01:03:30;;;;;;;7.63;3.43;;;11.30;99.90;;;;;;5064732;28;20193;-55
2022/05/08 01:06:05;;;;;;;5.50;3.50;;;11.20;99.90;;;;;;5066158;28;20226;-54
2022/05/08 01:08:33;;;;;;;4.10;3.63;;;11.20;99.90;;;;;;5060362;28;20217;-47
2022/05/08 01:11:02;;;;;;;5.00;3.10;;;11.20;99.90;;;;;;5083532;28;20182;-54
2022/05/08 01:13:27;;;;;;;3.27;2.97;;;11.20;99.90;;;;;;5065573;28;20205;-55
2022/05/08 01:15:55;;;;;;;3.80;3.40;;;11.20;99.90;;;;;;5069845;28;20202;-54
2022/05/08 01:18:21;;;;;;;4.77;3.53;;;11.10;99.90;;;;;;5068195;28;20181;-56
2022/05/08 01:20:47;;;;;;;5.50;3.60;;;11.10;99.90;;;;;;5065424;28;20239;-54
2022/05/08 01:23:15;;;;;;;4.50;3.23;;;11.10;99.90;;;;;;5069025;28;20185;-53
2022/05/08 01:25:51;;;;;;;4.73;3.90;;;11.00;99.90;;;;;;5066957;28;20182;-51
2022/05/08 01:28:17;;;;;;;6.67;3.60;;;11.00;99.90;;;;;;5070470;28;20173;-51
2022/05/08 01:30:44;;;;;;;3.33;3.03;;;11.00;99.90;;;;;;5066391;28;20181;-51
2022/05/08 01:33:10;;;;;;;3.43;2.90;;;10.90;99.90;;;;;;5069084;28;20255;-51
2022/05/08 01:35:37;;;;;;;6.23;3.43;;;11.00;99.90;;;;;;5067770;28;20209;-58
2022/05/08 01:38:05;;;;;;;5.97;3.47;;;11.00;99.90;;;;;;5067330;28;20173;-47
2022/05/08 01:40:31;;;;;;;4.27;3.50;;;10.90;99.90;;;;;;5068487;28;20189;-49
2022/05/08 01:42:58;;;;;;;4.30;3.23;;;10.90;99.90;;;;;;5066766;28;20185;-47
2022/05/08 01:45:24;;;;;;;5.83;3.07;;;10.90;99.90;;;;;;5069579;28;20178;-45
2022/05/08 01:50:35;;;;;;;5.07;3.70;;;10.90;99.90;;;;;;5086020;28;20197;-47
2022/05/08 01:53:01;;;;;;;4.83;3.30;;;10.80;99.90;;;;;;5067689;28;20190;-53
2022/05/08 01:55:27;;;;;;;4.80;3.37;;;10.80;99.90;;;;;;5066741;28;20281;-53
2022/05/08 01:57:53;;;;;;;5.37;3.27;;;10.80;99.90;;;;;;5068667;28;20280;-56
2022/05/08 02:00:21;;;;;;;4.60;3.70;;;10.80;99.90;;;;;;5066202;28;20200;-51
2022/05/08 02:02:48;;;;;;;4.83;3.53;;;10.80;99.90;;;;;;5069088;28;20280;-50
2022/05/08 02:05:18;;;;;;;5.73;3.90;;;10.80;99.90;;;;;;5065807;28;20190;-55
2022/05/08 02:07:45;;;;;;;6.47;4.07;;;10.80;99.90;;;;;;5068868;28;20222;-49
2022/05/08 02:10:12;;;;;;;7.67;4.67;;;10.80;99.90;;;;;;5067134;28;20185;-54
2022/05/08 02:12:38;;;;;;;5.17;3.67;;;10.80;99.90;;;;;;5067131;28;20651;-53
2022/05/08 02:15:09;;;;;;;5.20;3.70;;;10.80;99.90;;;;;;5068027;28;20182;-53
2022/05/08 02:17:35;;;;;;;4.50;3.13;;;10.80;99.90;;;;;;5066101;28;20218;-56
2022/05/08 02:20:03;;;;;;;5.33;3.73;;;10.80;99.90;;;;;;5069553;28;20182;-53
2022/05/08 02:22:29;;;;;;;5.87;4.10;;;10.80;99.90;;;;;;5065382;28;20186;-54
2022/05/08 02:24:54;;;;;;;3.87;3.13;;;10.80;99.90;;;;;;5067870;28;20204;-53
2022/05/08 02:27:20;;;;;;;5.40;3.70;;;10.90;99.90;;;;;;5067000;28;20202;-54
2022/05/08 02:29:50;;;;;;;6.00;4.23;;;10.80;99.90;;;;;;5067024;28;20185;-53
2022/05/08 02:32:16;;;;;;;5.23;3.47;;;10.70;99.90;;;;;;5067749;28;20189;-53
2022/05/08 02:34:42;;;;;;;7.37;4.17;;;10.70;99.90;;;;;;5065731;28;20277;-45
2022/05/08 02:37:09;;;;;;;5.63;3.83;;;10.70;99.90;;;;;;5068233;28;20244;-53
2022/05/08 02:39:34;;;;;;;7.07;4.30;;;10.70;99.90;;;;;;5064893;28;20197;-52
2022/05/08 02:42:00;;;;;;;4.00;3.43;;;10.70;99.90;;;;;;5068429;28;20193;-49
2022/05/08 02:44:26;;;;;;;5.73;4.00;;;10.70;99.90;;;;;;5065556;28;20189;-52
2022/05/08 02:46:52;;;;;;;7.77;4.00;;;10.70;99.90;;;;;;5067078;28;20209;-50
2022/05/08 02:49:18;;;;;;;4.53;4.10;;;10.70;99.90;;;;;;5067626;28;20246;-55
2022/05/08 02:51:44;;;;;;;4.50;3.63;;;10.70;99.90;;;;;;5065884;28;20205;-49
2022/05/08 02:54:10;;;;;;;5.50;3.87;;;10.60;99.90;;;;;;5067816;28;20186;-52
2022/05/08 02:59:20;;;;;;;5.90;3.97;;;10.50;99.90;;;;;;5084552;28;20201;-54
2022/05/08 03:01:45;;;;;;;6.60;3.77;;;10.40;99.90;;;;;;5065070;28;20194;-58
2022/05/08 03:04:11;;;;;;;4.30;3.80;;;10.40;99.90;;;;;;5066890;28;20278;-48
2022/05/08 03:06:38;;;;;;;8.10;4.60;;;10.40;99.90;;;;;;5066246;28;20233;-53
2022/05/08 03:09:04;;;;;;;11.73;5.30;;;10.40;99.90;;;;;;5065481;28;20225;-50
2022/05/08 03:11:30;;;;;;;6.33;4.10;;;10.30;99.90;;;;;;5084695;28;20185;-56
2022/05/08 03:13:57;;;;;;;6.90;3.83;;;10.40;99.90;;;;;;5064366;28;20227;-58
2022/05/08 03:16:23;;;;;;;5.20;3.63;;;10.30;99.90;;;;;;5068257;28;20193;-55
2022/05/08 03:18:50;;;;;;;4.87;3.67;;;10.40;99.90;;;;;;5064576;28;20194;-49
2022/05/08 03:21:16;;;;;;;7.33;4.53;;;10.30;99.90;;;;;;5066920;28;20206;-52
2022/05/08 03:23:44;;;;;;;5.57;3.60;;;10.40;99.90;;;;;;5066118;28;20189;-56
2022/05/08 03:26:10;;;;;;;7.57;4.27;;;10.30;99.90;;;;;;5065209;28;20225;-57
2022/05/08 03:28:40;;;;;;;3.43;3.13;;;10.30;99.90;;;;;;5067254;28;20190;-56
2022/05/08 03:31:06;;;;;;;6.27;3.40;;;10.40;99.90;;;;;;5063969;28;20250;-56
2022/05/08 03:33:34;;;;;;;4.63;3.80;;;10.50;99.90;;;;;;5067713;28;20182;-52
2022/05/08 03:36:01;;;;;;;7.27;3.37;;;10.40;99.90;;;;;;5064351;28;20186;-53
2022/05/08 03:38:30;;;;;;;5.37;3.40;;;10.30;99.90;;;;;;5067442;28;20223;-52
2022/05/08 03:40:56;;;;;;;5.93;3.60;;;10.30;99.90;;;;;;5066264;28;20204;-53
2022/05/08 03:43:22;;;;;;;4.00;3.30;;;10.30;99.90;;;;;;5065189;28;20181;-50
2022/05/08 03:45:49;;;;;;;5.17;3.73;;;10.30;99.90;;;;;;5066721;28;20221;-45
2022/05/08 03:48:19;;;;;;;6.17;3.57;;;10.30;99.90;;;;;;5063790;28;20201;-47
2022/05/08 03:50:45;;;;;;;6.33;3.23;;;10.30;99.90;;;;;;5067114;28;20182;-53
2022/05/08 03:53:11;;;;;;;7.00;3.53;;;10.30;99.90;;;;;;5063972;28;20181;-52
2022/05/08 03:55:37;;;;;;;5.03;3.70;;;10.30;99.90;;;;;;5066855;28;20268;-53
2022/05/08 03:58:03;;;;;;;7.10;4.10;;;10.30;99.90;;;;;;5063278;28;20269;-53
2022/05/08 04:00:29;;;;;;;4.20;3.60;;;10.30;99.90;;;;;;5063974;28;20174;-49
2022/05/08 04:02:55;;;;;;;5.13;3.77;;;10.20;99.90;;;;;;5064979;28;20178;-56
2022/05/08 04:05:22;;;;;;;5.80;4.13;;;10.30;99.90;;;;;;5062405;28;20174;-53
2022/05/08 04:07:48;;;;;;;5.60;3.77;;;10.20;99.90;;;;;;5062402;28;20279;-54
2022/05/08 04:10:14;;;;;;;6.47;3.77;;;10.20;99.90;;;;;;5059547;28;20207;-50
2022/05/08 04:12:42;;;;;;;4.40;3.50;;;10.30;99.90;;;;;;5067010;28;20178;-44
2022/05/08 04:17:54;;;;;;;7.93;3.40;;;10.20;99.90;;;;;;5082530;28;20223;-54
2022/05/08 04:20:20;;;;;;;4.17;2.97;;;10.00;99.90;;;;;;5067684;28;20193;-57
2022/05/08 04:25:30;;;;;;;4.77;3.50;;;10.20;99.90;;;;;;5084501;28;20196;-52
2022/05/08 04:27:56;;;;;;;56.27;20.20;;;10.20;99.90;;;;;;5064843;28;20270;-52
2022/05/08 04:30:22;;;;;;;6.37;3.63;;;10.20;99.90;;;;;;5066530;28;20227;-47
2022/05/08 04:32:47;;;;;;;5.87;3.63;;;10.00;99.90;;;;;;5065732;28;20193;-57
2022/05/08 04:35:13;;;;;;;6.40;3.60;;;10.10;99.90;;;;;;5065026;28;20309;-52
2022/05/08 04:37:41;;;;;;;7.37;3.57;;;10.10;99.90;;;;;;5066826;28;20724;-48
2022/05/08 04:40:07;;;;;;;5.70;3.53;;;10.10;99.90;;;;;;5063706;28;20200;-45
2022/05/08 04:42:33;;;;;;;8.43;4.43;;;10.20;99.90;;;;;;5067775;28;20387;-56
2022/05/08 04:44:59;;;;;;;20.63;8.40;;;10.10;99.90;;;;;;5063944;28;20280;-55
2022/05/08 04:47:28;;;;;;;6.07;4.10;;;10.20;99.90;;;;;;5068218;28;20304;-50
2022/05/08 04:49:54;;;;;;;5.73;4.13;;;10.30;99.90;;;;;;5070482;28;20182;-53
2022/05/08 04:52:20;;;;;;;4.87;3.83;;;10.30;99.90;;;;;;5069988;28;20286;-53
2022/05/08 04:54:45;;;;;;;5.93;4.37;;;10.30;99.90;;;;;;5070598;28;20182;-57
2022/05/08 04:57:11;;;;;;;4.93;3.67;;;10.40;99.90;;;;;;5068658;28;20190;-55
2022/05/08 04:59:37;;;;;;;15.43;8.73;;;10.40;99.90;;;;;;5071089;28;20196;-56
2022/05/08 05:02:03;;;;;;;5.70;3.97;;;10.40;99.90;;;;;;5066995;28;20182;-57
2022/05/08 05:04:29;;;;;;;8.23;4.20;;;10.30;99.90;;;;;;5071141;28;20186;-54
2022/05/08 05:06:55;;;;;;;6.80;4.30;;;10.40;99.90;;;;;;5067706;28;20249;-57
2022/05/08 05:09:21;;;;;;;6.60;3.70;;;10.30;99.90;;;;;;5069976;28;20182;-55
2022/05/08 05:11:47;;;;;;;5.63;3.97;;;10.30;99.90;;;;;;5068953;28;20193;-56
2022/05/08 05:14:13;;;;;;;4.20;3.47;;;10.40;99.90;;;;;;5067970;28;20196;-54
2022/05/08 05:16:38;;;;;;;6.37;4.57;;;10.60;99.90;;;;;;5070493;28;20182;-52
2022/05/08 05:19:04;;;;;;;5.20;3.63;;;10.80;99.90;;;;;;5066910;28;20274;-52
2022/05/08 05:21:31;;;;;;;4.47;3.80;;;10.90;99.90;;;;;;5071479;28;20186;-51
2022/05/08 05:23:56;;;;;;;4.00;3.33;;;10.90;99.90;;;;;;5067700;28;20200;-48
2022/05/08 05:26:22;;;;;;;68.40;27.33;;;11.00;99.90;;;;;;5070168;28;20210;-47
2022/05/08 05:28:48;;;;;;;7.07;4.90;;;11.10;99.90;;;;;;5068721;28;20250;-52
2022/05/08 05:31:15;;;;;;;6.43;4.60;;;11.20;99.90;;;;;;5068299;28;20205;-53
2022/05/08 05:33:41;;;;;;;5.57;3.83;;;11.20;99.90;;;;;;5069641;28;20331;-54
2022/05/08 05:36:07;;;;;;;4.57;3.70;;;11.30;99.90;;;;;;5067334;28;20284;-56
2022/05/08 05:38:33;;;;;;;5.30;4.17;;;11.20;99.90;;;;;;5070913;28;20190;-56
2022/05/08 05:40:59;;;;;;;8.07;4.43;;;11.30;99.90;;;;;;5066976;28;20245;-57
2022/05/08 05:43:25;;;;;;;6.37;4.27;;;11.50;99.90;;;;;;5070338;28;20284;-55
2022/05/08 05:48:37;;;;;;;6.23;4.43;;;11.40;99.90;;;;;;5085186;28;20189;-54
2022/05/08 05:51:05;;;;;;;4.30;3.90;;;11.50;99.90;;;;;;5070225;28;20177;-55
2022/05/08 05:53:31;;;;;;;3.90;3.60;;;11.70;99.90;;;;;;5066908;28;20178;-48
2022/05/08 05:56:01;;;;;;;6.13;3.97;;;11.90;99.90;;;;;;5070394;28;20193;-50
2022/05/08 05:58:26;;;;;;;4.17;3.43;;;11.70;99.90;;;;;;5066530;28;20251;-57
2022/05/08 06:00:52;;;;;;;5.93;4.23;;;11.90;99.90;;;;;;5069021;28;20189;-55
2022/05/08 06:03:18;;;;;;;7.47;4.33;;;12.00;99.90;;;;;;5067970;28;20182;-57
2022/05/08 06:05:44;;;;;;;5.27;4.27;;;11.80;99.90;;;;;;5067361;28;20228;-48
2022/05/08 06:08:10;;;;;;;5.43;4.30;;;11.60;99.90;;;;;;5068648;28;20186;-55
2022/05/08 06:10:36;;;;;;;5.87;4.23;;;11.50;99.90;;;;;;5067258;28;20299;-54
2022/05/08 06:13:02;;;;;;;7.23;5.13;;;11.70;99.90;;;;;;5069542;28;20190;-51
2022/05/08 06:15:28;;;;;;;6.30;4.40;;;11.70;99.90;;;;;;5066517;28;20185;-58
2022/05/08 06:17:55;;;;;;;4.87;4.10;;;12.00;99.90;;;;;;5070137;28;20185;-51
2022/05/08 06:20:21;;;;;;;5.97;4.03;;;12.00;99.90;;;;;;5067548;28;20186;-56
2022/05/08 06:22:47;;;;;;;5.23;3.80;;;11.90;99.90;;;;;;5068665;28;20197;-54
2022/05/08 06:25:12;;;;;;;4.53;3.87;;;11.90;99.90;;;;;;5068296;28;20184;-56
2022/05/08 06:27:38;;;;;;;4.53;3.80;;;11.80;99.90;;;;;;5066627;28;20367;-56
2022/05/08 06:30:06;;;;;;;6.17;4.40;;;12.00;99.90;;;;;;5069099;28;20253;-53
2022/05/08 06:32:32;;;;;;;5.53;4.30;;;12.40;99.90;;;;;;5065767;28;20182;-54
2022/05/08 06:34:57;;;;;;;5.80;4.07;;;12.40;99.90;;;;;;5069116;28;20207;-58
2022/05/08 06:37:23;;;;;;;4.33;3.87;;;12.50;99.90;;;;;;5066389;28;20189;-48
2022/05/08 06:39:49;;;;;;;6.10;4.50;;;12.30;99.90;;;;;;5068605;28;20398;-47
2022/05/08 06:42:15;;;;;;;4.80;3.97;;;12.70;99.90;;;;;;5067701;28;20186;-54
2022/05/08 06:44:41;;;;;;;6.10;4.30;;;12.70;99.90;;;;;;5067053;28;20202;-44
2022/05/08 06:47:07;;;;;;;4.53;4.10;;;13.10;99.90;;;;;;5068539;28;20210;-52
2022/05/08 06:49:32;;;;;;;5.73;4.23;;;13.10;99.90;;;;;;5065748;28;20189;-57
2022/05/08 06:51:58;;;;;;;4.77;4.30;;;13.00;99.90;;;;;;5069366;28;20217;-52
2022/05/08 06:54:26;;;;;;;7.40;4.70;;;13.00;99.90;;;;;;5065467;28;20185;-54
2022/05/08 06:56:53;;;;;;;7.50;4.13;;;12.90;99.90;;;;;;5068761;28;20186;-53
2022/05/08 07:02:04;;;;;;;5.60;4.20;;;13.20;99.90;;;;;;5083289;28;20221;-53
2022/05/08 07:04:30;;;;;;;5.50;4.40;;;13.40;99.90;;;;;;5068180;28;20278;-51
2022/05/08 07:06:55;;;;;;;5.63;4.40;;;13.40;99.90;;;;;;5065165;28;20293;-52
2022/05/08 07:09:21;;;;;;;5.20;4.03;;;13.60;99.90;;;;;;5068376;28;20235;-55
2022/05/08 07:11:47;;;;;;;6.40;4.03;;;13.80;99.90;;;;;;5065291;28;20202;-56
2022/05/08 07:14:16;;;;;;;5.07;4.20;;;13.70;99.90;;;;;;5068544;28;20195;-52
2022/05/08 07:16:43;;;;;;;5.20;4.70;;;13.90;99.90;;;;;;5066383;28;20208;-53
2022/05/08 07:19:09;;;;;;;5.87;4.10;;;13.70;99.90;;;;;;5066981;28;20213;-55
2022/05/08 07:21:34;;;;;;;11.43;4.80;;;13.60;99.90;;;;;;5068159;28;20221;-50
2022/05/08 07:24:00;;;;;;;5.20;4.70;;;13.80;99.90;;;;;;5065226;28;20189;-56
2022/05/08 07:26:26;;;;;;;6.90;4.63;;;14.20;99.90;;;;;;5067867;28;20297;-56
2022/05/08 07:28:52;;;;;;;60.83;27.37;;;14.20;99.90;;;;;;5064705;28;20190;-51
2022/05/08 07:31:18;;;;;;;10.93;6.97;;;14.50;99.90;;;;;;5068545;28;20253;-50
2022/05/08 07:33:43;;;;;;;7.63;5.13;;;14.50;99.90;;;;;;5066062;28;20227;-55
2022/05/08 07:36:15;;;;;;;5.90;4.70;;;14.50;99.90;;;;;;5067603;28;20178;-52
2022/05/08 07:38:42;;;;;;;6.77;4.97;;;14.80;99.90;;;;;;5066768;28;20181;-53
2022/05/08 07:41:14;;;;;;;5.77;4.83;;;15.00;99.90;;;;;;5065605;28;20183;-48
2022/05/08 07:43:45;;;;;;;5.57;4.10;;;15.20;99.90;;;;;;5068162;28;20187;-50
2022/05/08 07:46:11;;;;;;;5.20;4.43;;;15.30;99.90;;;;;;5064416;28;20315;-51
2022/05/08 07:48:37;;;;;;;5.03;4.47;;;15.70;99.90;;;;;;5067918;28;20279;-50
2022/05/08 07:51:03;;;;;;;4.73;3.77;;;15.50;99.90;;;;;;5066024;28;20195;-57
2022/05/08 07:53:31;;;;;;;4.70;4.20;;;15.60;99.90;;;;;;5066633;28;20186;-48
2022/05/08 07:55:58;;;;;;;5.93;4.33;;;15.90;99.90;;;;;;5066335;28;20295;-56
2022/05/08 07:58:27;;;;;;;4.00;3.70;;;15.90;99.90;;;;;;5065412;28;20193;-51
2022/05/08 08:00:55;;;;;;;5.40;4.13;;;16.10;99.90;;;;;;5067489;28;20231;-46
2022/05/08 08:03:25;;;;;;;5.20;4.30;;;15.90;99.90;;;;;;5064495;28;20216;-54
2022/05/08 08:05:52;;;;;;;4.97;3.90;;;16.10;99.90;;;;;;5067787;28;20221;-49
2022/05/08 08:08:21;;;;;;;5.10;4.50;;;16.20;99.90;;;;;;5065046;28;20189;-55
2022/05/08 08:10:47;;;;;;;7.77;6.33;;;16.30;99.90;;;;;;5066464;28;20231;-54
2022/05/08 08:13:13;;;;;;;25.13;12.57;;;16.50;99.90;;;;;;5066611;28;20189;-49
2022/05/08 08:15:41;;;;;;;6.10;4.73;;;16.60;99.90;;;;;;5065371;28;20194;-50
2022/05/08 08:18:07;;;;;;;6.57;4.47;;;16.90;99.90;;;;;;5067574;28;20185;-53
2022/05/08 08:20:32;;;;;;;4.33;3.93;;;17.00;99.90;;;;;;5063801;28;20262;-53
2022/05/08 08:22:58;;;;;;;4.73;4.23;;;17.10;99.90;;;;;;5067421;28;20272;-58
2022/05/08 08:25:24;;;;;;;4.30;4.00;;;17.00;99.90;;;;;;5064589;28;20198;-56
2022/05/08 08:27:50;;;;;;;3.90;3.60;;;16.70;99.90;;;;;;5066648;28;20214;-46
2022/05/08 08:30:16;;;;;;;4.60;4.20;;;16.60;99.90;;;;;;5066356;28;20197;-50
2022/05/08 08:32:41;;;;;;;4.90;4.37;;;16.90;99.90;;;;;;5066012;28;20272;-48
2022/05/08 08:35:08;;;;;;;4.00;3.70;;;17.10;99.90;;;;;;5067000;28;20181;-53
2022/05/08 08:37:33;;;;;;;3.80;3.50;;;17.30;99.90;;;;;;5065362;28;20181;-51
2022/05/08 08:40:00;;;;;;;5.23;3.77;;;17.10;99.90;;;;;;5067866;28;20182;-54
2022/05/08 08:42:30;;;;;;;4.00;3.60;;;17.50;99.90;;;;;;5065014;28;20194;-56
2022/05/08 08:47:52;;;;;;;3.87;3.57;;;18.30;99.90;;;;;;5082911;28;20311;-47
2022/05/08 08:50:18;;;;;;;5.93;3.87;;;18.70;99.90;;;;;;5065602;28;20211;-52
2022/05/08 08:52:46;;;;;;;4.37;3.97;;;18.20;99.90;;;;;;5068089;28;20186;-51
2022/05/08 08:55:12;;;;;;;5.83;4.47;;;17.90;99.90;;;;;;5064472;28;20199;-49
2022/05/08 08:57:38;;;;;;;4.90;3.30;;;18.00;99.90;;;;;;5067742;28;20182;-48
2022/05/08 09:00:07;;;;;;;4.00;3.70;;;18.20;99.90;;;;;;5065367;28;20216;-56
2022/05/08 09:02:34;;;;;;;3.83;3.40;;;18.20;99.90;;;;;;5066305;28;20184;-54
2022/05/08 09:05:08;;;;;;;4.20;3.90;;;18.50;99.90;;;;;;5065805;28;20186;-53
2022/05/08 09:07:34;;;;;;;3.10;2.90;;;18.60;99.90;;;;;;5064202;28;20247;-47
2022/05/08 09:10:07;;;;;;;4.47;3.70;;;19.10;99.90;;;;;;5067158;28;20216;-55
2022/05/08 09:12:34;;;;;;;3.38;3.17;;;19.30;99.90;;;;;;5063865;28;20190;-54
2022/05/08 09:14:59;;;;;;;3.50;3.20;;;19.40;99.90;;;;;;5067041;28;20289;-56
2022/05/08 09:17:42;;;;;;;22.15;13.70;;;19.90;99.90;;;;;;5064151;28;20272;-57
2022/05/08 09:20:24;;;;;;;5.20;4.07;;;19.80;99.90;;;;;;5065325;28;20208;-54
2022/05/08 09:23:16;;;;;;;4.30;3.88;;;19.80;99.90;;;;;;5067209;28;20192;-53
2022/05/08 09:25:45;;;;;;;3.17;2.92;;;19.80;99.90;;;;;;5060711;28;20190;-56
2022/05/08 09:28:17;;;;;;;3.50;2.92;;;20.00;99.90;;;;;;5066859;28;20224;-49
2022/05/08 09:31:05;;;;;;;4.05;3.65;;;19.90;99.90;;;;;;5066055;28;20193;-56
2022/05/08 09:33:35;;;;;;;3.83;3.53;;;19.90;99.90;;;;;;5065326;28;20190;-56
2022/05/08 09:36:07;;;;;;;3.92;3.25;;;20.30;99.90;;;;;;5069932;28;20217;-50
2022/05/08 09:38:43;;;;;;;3.35;2.70;;;20.30;99.90;;;;;;5065659;28;20260;-51
2022/05/08 09:41:09;;;;;;;23.17;14.63;;;20.30;99.90;;;;;;5066684;28;20189;-47
2022/05/08 09:43:35;;;;;;;2.40;2.30;;;20.70;99.90;;;;;;5067586;28;20174;-52
2022/05/08 09:46:03;;;;;;;5.32;3.50;;;20.80;99.90;;;;;;5067288;28;20239;-56
2022/05/08 09:48:30;;;;;;;7.05;4.68;;;20.70;99.90;;;;;;5069199;28;20295;-58
2022/05/08 09:51:15;;;;;;;3.33;3.03;;;20.60;99.90;;;;;;5066645;28;20170;-54
2022/05/08 09:53:43;;;;;;;4.57;3.28;;;20.60;99.90;;;;;;5069575;28;20179;-47
2022/05/08 09:56:11;;;;;;;6.15;3.92;;;20.20;99.90;;;;;;5064243;28;20234;-56
2022/05/08 09:58:43;;;;;;;2.83;2.53;;;20.30;99.90;;;;;;5068520;28;20245;-55
2022/05/08 10:01:09;;;;;;;3.38;3.08;;;20.60;99.90;;;;;;5065554;28;20235;-56
2022/05/08 10:03:36;;;;;;;3.53;3.22;;;20.40;99.90;;;;;;5067226;28;20177;-50
2022/05/08 10:06:02;;;;;;;4.30;3.83;;;20.90;99.90;;;;;;5069032;28;20229;-52
2022/05/08 10:08:30;;;;;;;15.40;9.38;;;21.30;99.90;;;;;;5065926;28;20182;-50
2022/05/08 10:14:00;;;;;;;2.13;2.03;;;21.20;99.90;;;;;;5084122;28;20181;-56
2022/05/08 10:17:02;;;;;;;5.70;3.33;;;21.10;99.90;;;;;;5067171;28;20178;-51
2022/05/08 10:19:46;;;;;;;2.25;2.15;;;21.20;99.90;;;;;;5086807;28;20197;-47
2022/05/08 10:22:15;;;;;;;2.30;2.20;;;21.60;99.90;;;;;;5067277;28;20178;-49
2022/05/08 10:24:53;;;;;;;2.20;2.10;;;21.90;99.90;;;;;;5067664;28;20178;-45
2022/05/08 10:27:23;;;;;;;2.53;2.42;;;21.80;99.90;;;;;;5069101;28;20209;-51
2022/05/08 10:29:52;;;;;;;2.08;1.98;;;21.40;99.90;;;;;;5063303;28;20186;-49
2022/05/08 10:32:31;;;;;;;2.03;1.92;;;21.60;99.90;;;;;;5085554;28;20186;-51
2022/05/08 10:35:17;;;;;;;2.22;2.13;;;22.30;99.90;;;;;;5064489;28;20174;-48
2022/05/08 10:37:50;;;;;;;1.60;1.60;;;22.50;98.90;;;;;;5067333;28;20190;-47
2022/05/08 10:40:22;;;;;;;2.58;2.38;;;22.40;99.10;;;;;;5067905;28;20197;-52
2022/05/08 10:43:10;;;;;;;2.00;1.90;;;22.40;99.30;;;;;;5081887;28;20246;-48
2022/05/08 10:45:40;;;;;;;2.88;2.60;;;23.10;99.10;;;;;;5062587;28;20203;-55
2022/05/08 10:48:26;;;;;;;3.20;2.85;;;22.70;99.70;;;;;;5083665;28;20209;-53
2022/05/08 10:50:54;;;;;;;2.25;2.03;;;23.20;99.40;;;;;;5066528;28;20243;-48
2022/05/08 10:53:20;;;;;;;2.40;2.20;;;22.50;99.20;;;;;;5068886;28;20269;-54
2022/05/08 10:55:46;;;;;;;2.13;2.03;;;22.50;99.00;;;;;;5082482;28;20277;-52
2022/05/08 10:58:11;;;;;;;2.17;2.08;;;22.70;98.80;;;;;;5068992;28;20186;-51
2022/05/08 11:00:37;;;;;;;2.45;2.35;;;22.30;98.30;;;;;;5065645;28;20196;-52
2022/05/08 11:03:03;;;;;;;2.22;1.90;;;22.50;99.20;;;;;;5068390;28;20270;-54
2022/05/08 11:05:31;;;;;;;2.03;1.90;;;22.90;98.70;;;;;;5066869;28;20188;-50
2022/05/08 11:08:07;;;;;;;2.28;2.00;;;23.10;98.20;;;;;;5066817;28;20259;-55
2022/05/08 11:10:40;;;;;;;24.80;16.02;;;23.20;98.00;;;;;;5085054;28;20213;-54
2022/05/08 11:13:15;;;;;;;2.40;2.30;;;23.80;97.50;;;;;;5065086;28;20214;-53
2022/05/08 11:15:41;;;;;;;1.77;1.67;;;23.60;96.90;;;;;;5069188;28;20265;-51
2022/05/08 11:18:09;;;;;;;2.40;2.20;;;23.80;96.20;;;;;;5082631;28;20269;-54
2022/05/08 11:20:52;;;;;;;2.90;2.70;;;23.30;96.50;;;;;;5068342;28;20667;-56
2022/05/08 11:23:34;;;;;;;1.92;1.83;;;22.90;96.70;;;;;;5067016;28;20193;-57
2022/05/08 11:26:09;;;;;;;2.22;2.00;;;23.10;97.40;;;;;;5065195;28;20225;-52
2022/05/08 11:28:44;;;;;;;2.38;2.17;;;23.70;96.00;;;;;;5068719;28;20268;-57
2022/05/08 11:31:15;;;;;;;2.13;2.03;;;23.10;96.20;;;;;;5065587;28;20242;-52
2022/05/08 11:36:27;;;;;;;2.03;1.92;;;23.50;95.30;;;;;;5084477;28;20194;-56
2022/05/08 11:39:05;;;;;;;1.85;1.85;;;23.80;95.50;;;;;;5081617;28;20569;-55
2022/05/08 11:41:36;;;;;;;2.00;1.90;;;23.40;96.10;;;;;;5068304;28;20608;-54
2022/05/08 11:44:15;;;;;;;2.55;1.85;;;23.60;95.60;;;;;;5064777;28;20190;-54
2022/05/08 11:46:44;;;;;;;2.30;1.63;;;23.70;95.60;;;;;;5083461;28;20217;-52
2022/05/08 11:49:15;;;;;;;1.80;1.70;;;23.60;95.30;;;;;;5083451;28;20270;-51
2022/05/08 11:51:43;;;;;;;4.95;2.20;;;23.80;94.30;;;;;;5082692;28;20255;-49
2022/05/08 11:54:29;;;;;;;2.30;2.20;;;24.30;93.90;;;;;;5068252;28;20194;-56
2022/05/08 11:57:17;;;;;;;6.15;4.20;;;24.80;93.30;;;;;;5080350;28;20193;-56
2022/05/08 11:59:45;;;;;;;1.52;1.52;;;24.90;93.00;;;;;;5066483;28;20229;-52
2022/05/08 12:02:12;;;;;;;2.17;1.98;;;25.20;92.50;;;;;;5066824;28;20186;-51
2022/05/08 12:04:41;;;;;;;1.90;1.90;;;26.20;92.10;;;;;;5065402;28;20185;-49
2022/05/08 12:07:13;;;;;;;1.90;1.80;;;25.70;90.80;;;;;;5067486;28;20235;-48
2022/05/08 12:09:48;;;;;;;1.83;1.73;;;25.50;91.90;;;;;;5063975;28;20260;-51
2022/05/08 12:12:22;;;;;;;5.97;3.53;;;25.50;92.70;;;;;;5084161;28;20224;-49
2022/05/08 12:14:48;;;;;;;3.92;2.78;;;25.80;91.50;;;;;;5083077;28;20192;-54
2022/05/08 12:17:14;;;;;;;3.20;3.00;;;25.80;91.60;;;;;;5065612;28;20182;-48
2022/05/08 12:19:52;;;;;;;1.90;1.80;;;26.10;91.40;;;;;;5067195;28;20186;-54
2022/05/08 12:22:29;;;;;;;2.70;2.38;;;25.50;91.20;;;;;;5065599;28;20216;-52
2022/05/08 12:25:00;;;;;;;2.17;2.08;;;25.40;91.20;;;;;;5067495;28;20310;-54
2022/05/08 12:27:26;;;;;;;1.63;1.52;;;25.40;90.90;;;;;;5064927;28;20225;-54
2022/05/08 12:29:53;;;;;;;2.10;2.00;;;25.80;90.00;;;;;;5066007;28;20189;-49
2022/05/08 12:32:20;;;;;;;1.60;1.50;;;25.00;91.10;;;;;;5066799;28;20205;-56
2022/05/08 12:34:47;;;;;;;2.03;1.92;;;24.50;90.90;;;;;;5065446;28;20190;-53
2022/05/08 12:37:14;;;;;;;1.67;1.58;;;24.90;90.20;;;;;;5067584;28;20189;-54
2022/05/08 12:39:41;;;;;;;1.30;1.30;;;25.10;90.00;;;;;;5064641;28;20186;-51
2022/05/08 12:42:09;;;;;;;1.85;1.70;;;25.20;90.70;;;;;;5067747;28;20269;-54
2022/05/08 12:44:36;;;;;;;1.17;1.17;;;25.20;88.70;;;;;;5065466;28;20225;-57
2022/05/08 12:47:10;;;;;;;1.80;1.80;;;25.60;89.30;;;;;;5067000;28;20224;-54
2022/05/08 12:49:37;;;;;;;1.40;1.40;;;25.30;90.10;;;;;;5066653;28;20204;-58
2022/05/08 12:52:04;;;;;;;1.98;1.88;;;25.80;88.60;;;;;;5066245;28;20193;-56
2022/05/08 12:54:30;;;;;;;1.30;1.30;;;25.70;87.80;;;;;;5067849;28;20181;-57
2022/05/08 12:56:56;;;;;;;2.10;2.00;;;25.90;90.30;;;;;;5065051;28;20185;-54
2022/05/08 13:02:07;;;;;;;1.83;1.67;;;26.40;89.90;;;;;;5082551;28;20224;-55
2022/05/08 13:04:33;;;;;;;1.40;1.40;;;27.10;88.80;;;;;;5066178;28;20197;-54
2022/05/08 13:06:59;;;;;;;1.40;1.40;;;27.60;86.10;;;;;;5066451;28;20241;-53
2022/05/08 13:09:25;;;;;;;3.00;1.92;;;27.50;85.60;;;;;;5067750;28;20178;-56
2022/05/08 13:11:50;;;;;;;1.48;1.48;;;27.50;84.60;;;;;;5071740;28;20174;-57
2022/05/08 13:14:17;;;;;;;1.67;1.58;;;27.60;82.90;;;;;;5068603;28;20194;-55
2022/05/08 13:16:42;;;;;;;1.60;1.60;;;27.50;81.70;;;;;;5071539;28;20261;-53
2022/05/08 13:19:08;;;;;;;1.95;1.85;;;26.60;82.40;;;;;;5068615;28;20276;-56